sensor_id;sensor_type;location;lat;lon;timestamp;P1;durP1;ratioP1;P2;durP2;ratioP2
66139;SDS011;52945;51.908;8.364;2022-09-21T00:01:40;8.15;;;3.28;;
66139;SDS011;52945;51.908;8.364;2022-09-21T00:04:41;8.15;;;2.85;;
66139;SDS011;52945;51.908;8.364;2022-09-21T00:07:41;4.85;;;2.83;;
66139;SDS011;52945;51.908;8.364;2022-09-21T00:10:47;7.07;;;2.92;;
66139;SDS011;52945;51.908;8.364;2022-09-21T00:13:52;6.15;;;2.65;;
66139;SDS011;52945;51.908;8.364;2022-09-21T00:16:54;5.57;;;2.92;;
66139;SDS011;52945;51.908;8.364;2022-09-21T00:19:55;7.47;;;3.63;;
66139;SDS011;52945;51.908;8.364;2022-09-21T00:22:55;3.53;;;2.35;;
66139;SDS011;52945;51.908;8.364;2022-09-21T00:26:06;4.75;;;2.70;;
66139;SDS011;52945;51.908;8.364;2022-09-21T00:29:08;4.03;;;2.83;;
66139;SDS011;52945;51.908;8.364;2022-09-21T00:32:09;6.85;;;2.70;;
66139;SDS011;52945;51.908;8.364;2022-09-21T00:35:10;6.13;;;2.85;;
66139;SDS011;52945;51.908;8.364;2022-09-21T00:38:10;6.57;;;2.70;;
66139;SDS011;52945;51.908;8.364;2022-09-21T00:41:11;5.53;;;2.70;;
66139;SDS011;52945;51.908;8.364;2022-09-21T00:47:42;3.40;;;2.47;;
66139;SDS011;52945;51.908;8.364;2022-09-21T00:50:46;7.35;;;3.03;;
66139;SDS011;52945;51.908;8.364;2022-09-21T00:53:52;7.18;;;2.97;;
66139;SDS011;52945;51.908;8.364;2022-09-21T00:56:56;3.97;;;2.53;;
66139;SDS011;52945;51.908;8.364;2022-09-21T01:00:04;5.05;;;2.75;;
66139;SDS011;52945;51.908;8.364;2022-09-21T01:03:07;3.58;;;2.58;;
66139;SDS011;52945;51.908;8.364;2022-09-21T01:06:10;6.43;;;3.20;;
66139;SDS011;52945;51.908;8.364;2022-09-21T01:09:14;5.07;;;2.63;;
66139;SDS011;52945;51.908;8.364;2022-09-21T01:21:54;5.40;;;2.92;;
66139;SDS011;52945;51.908;8.364;2022-09-21T01:25:19;4.00;;;2.75;;
66139;SDS011;52945;51.908;8.364;2022-09-21T01:38:26;3.05;;;2.00;;
66139;SDS011;52945;51.908;8.364;2022-09-21T01:41:31;3.92;;;2.50;;
66139;SDS011;52945;51.908;8.364;2022-09-21T01:44:33;6.25;;;2.53;;
66139;SDS011;52945;51.908;8.364;2022-09-21T01:47:38;5.55;;;2.55;;
66139;SDS011;52945;51.908;8.364;2022-09-21T01:50:43;4.00;;;2.40;;
66139;SDS011;52945;51.908;8.364;2022-09-21T01:53:49;3.70;;;2.40;;
66139;SDS011;52945;51.908;8.364;2022-09-21T01:56:54;3.42;;;2.05;;
66139;SDS011;52945;51.908;8.364;2022-09-21T02:00:01;2.80;;;2.10;;
66139;SDS011;52945;51.908;8.364;2022-09-21T02:06:14;3.08;;;2.00;;
66139;SDS011;52945;51.908;8.364;2022-09-21T02:09:16;3.25;;;1.83;;
66139;SDS011;52945;51.908;8.364;2022-09-21T02:12:17;4.43;;;2.65;;
66139;SDS011;52945;51.908;8.364;2022-09-21T02:15:19;3.60;;;2.00;;
66139;SDS011;52945;51.908;8.364;2022-09-21T02:19:01;4.00;;;2.17;;
66139;SDS011;52945;51.908;8.364;2022-09-21T02:45:25;2.70;;;2.15;;
66139;SDS011;52945;51.908;8.364;2022-09-21T02:48:27;3.15;;;2.30;;
66139;SDS011;52945;51.908;8.364;2022-09-21T02:51:33;4.35;;;2.25;;
66139;SDS011;52945;51.908;8.364;2022-09-21T02:54:37;3.53;;;1.95;;
66139;SDS011;52945;51.908;8.364;2022-09-21T02:57:40;5.72;;;2.05;;
66139;SDS011;52945;51.908;8.364;2022-09-21T03:00:42;2.80;;;1.95;;
66139;SDS011;52945;51.908;8.364;2022-09-21T03:03:42;3.25;;;2.20;;
66139;SDS011;52945;51.908;8.364;2022-09-21T03:06:43;5.18;;;2.00;;
66139;SDS011;52945;51.908;8.364;2022-09-21T03:09:44;6.30;;;2.13;;
66139;SDS011;52945;51.908;8.364;2022-09-21T03:12:45;2.53;;;1.60;;
66139;SDS011;52945;51.908;8.364;2022-09-21T03:15:46;2.63;;;1.70;;
66139;SDS011;52945;51.908;8.364;2022-09-21T03:18:46;5.45;;;1.92;;
66139;SDS011;52945;51.908;8.364;2022-09-21T03:21:47;3.55;;;1.90;;
66139;SDS011;52945;51.908;8.364;2022-09-21T03:24:48;3.28;;;1.92;;
66139;SDS011;52945;51.908;8.364;2022-09-21T03:27:49;4.38;;;1.90;;
66139;SDS011;52945;51.908;8.364;2022-09-21T03:30:52;3.55;;;2.15;;
66139;SDS011;52945;51.908;8.364;2022-09-21T03:33:53;4.47;;;2.15;;
66139;SDS011;52945;51.908;8.364;2022-09-21T03:36:54;3.65;;;2.05;;
66139;SDS011;52945;51.908;8.364;2022-09-21T03:39:54;5.10;;;1.98;;
66139;SDS011;52945;51.908;8.364;2022-09-21T03:42:55;2.58;;;1.75;;
66139;SDS011;52945;51.908;8.364;2022-09-21T03:45:55;3.65;;;1.73;;
66139;SDS011;52945;51.908;8.364;2022-09-21T03:48:56;2.92;;;1.85;;
66139;SDS011;52945;51.908;8.364;2022-09-21T03:51:57;2.13;;;1.70;;
66139;SDS011;52945;51.908;8.364;2022-09-21T03:54:58;2.58;;;2.00;;
66139;SDS011;52945;51.908;8.364;2022-09-21T03:57:59;6.32;;;1.90;;
66139;SDS011;52945;51.908;8.364;2022-09-21T04:01:00;3.17;;;1.70;;
66139;SDS011;52945;51.908;8.364;2022-09-21T04:04:02;2.90;;;1.73;;
66139;SDS011;52945;51.908;8.364;2022-09-21T04:07:03;2.53;;;1.80;;
66139;SDS011;52945;51.908;8.364;2022-09-21T04:10:04;1.98;;;1.55;;
66139;SDS011;52945;51.908;8.364;2022-09-21T04:13:06;3.38;;;1.88;;
66139;SDS011;52945;51.908;8.364;2022-09-21T04:16:08;2.88;;;1.60;;
66139;SDS011;52945;51.908;8.364;2022-09-21T04:19:09;3.83;;;1.80;;
66139;SDS011;52945;51.908;8.364;2022-09-21T04:22:11;2.75;;;1.58;;
66139;SDS011;52945;51.908;8.364;2022-09-21T04:25:12;2.70;;;1.83;;
66139;SDS011;52945;51.908;8.364;2022-09-21T04:28:13;2.15;;;1.30;;
66139;SDS011;52945;51.908;8.364;2022-09-21T04:31:13;3.55;;;1.70;;
66139;SDS011;52945;51.908;8.364;2022-09-21T04:34:14;4.70;;;2.30;;
66139;SDS011;52945;51.908;8.364;2022-09-21T04:37:15;5.43;;;1.98;;
66139;SDS011;52945;51.908;8.364;2022-09-21T04:40:15;3.90;;;1.65;;
66139;SDS011;52945;51.908;8.364;2022-09-21T04:43:16;5.57;;;2.40;;
66139;SDS011;52945;51.908;8.364;2022-09-21T04:46:17;2.53;;;1.85;;
66139;SDS011;52945;51.908;8.364;2022-09-21T04:49:19;5.75;;;1.83;;
66139;SDS011;52945;51.908;8.364;2022-09-21T04:52:19;2.35;;;1.67;;
66139;SDS011;52945;51.908;8.364;2022-09-21T04:55:20;4.00;;;1.70;;
66139;SDS011;52945;51.908;8.364;2022-09-21T04:58:21;2.65;;;1.83;;
66139;SDS011;52945;51.908;8.364;2022-09-21T05:01:22;2.33;;;1.65;;
66139;SDS011;52945;51.908;8.364;2022-09-21T05:04:23;5.53;;;1.77;;
66139;SDS011;52945;51.908;8.364;2022-09-21T05:07:23;3.80;;;1.83;;
66139;SDS011;52945;51.908;8.364;2022-09-21T05:10:24;2.72;;;1.55;;
66139;SDS011;52945;51.908;8.364;2022-09-21T05:13:25;6.35;;;1.95;;
66139;SDS011;52945;51.908;8.364;2022-09-21T05:16:25;4.72;;;1.98;;
66139;SDS011;52945;51.908;8.364;2022-09-21T05:19:26;2.83;;;1.77;;
66139;SDS011;52945;51.908;8.364;2022-09-21T05:22:26;4.00;;;2.03;;
66139;SDS011;52945;51.908;8.364;2022-09-21T05:25:27;3.53;;;2.15;;
66139;SDS011;52945;51.908;8.364;2022-09-21T05:28:28;2.65;;;2.10;;
66139;SDS011;52945;51.908;8.364;2022-09-21T05:35:21;2.58;;;1.83;;
66139;SDS011;52945;51.908;8.364;2022-09-21T05:38:30;2.55;;;1.88;;
66139;SDS011;52945;51.908;8.364;2022-09-21T05:41:31;3.83;;;2.17;;
66139;SDS011;52945;51.908;8.364;2022-09-21T05:44:31;7.93;;;2.08;;
66139;SDS011;52945;51.908;8.364;2022-09-21T05:47:37;4.38;;;2.35;;
66139;SDS011;52945;51.908;8.364;2022-09-21T05:54:13;4.88;;;2.63;;
66139;SDS011;52945;51.908;8.364;2022-09-21T05:57:34;3.97;;;2.67;;
66139;SDS011;52945;51.908;8.364;2022-09-21T06:04:22;5.63;;;2.30;;
66139;SDS011;52945;51.908;8.364;2022-09-21T06:07:23;4.00;;;2.20;;
66139;SDS011;52945;51.908;8.364;2022-09-21T06:10:24;3.88;;;2.10;;
66139;SDS011;52945;51.908;8.364;2022-09-21T06:13:26;3.90;;;2.22;;
66139;SDS011;52945;51.908;8.364;2022-09-21T06:16:35;4.40;;;2.08;;
66139;SDS011;52945;51.908;8.364;2022-09-21T06:19:39;3.65;;;1.85;;
66139;SDS011;52945;51.908;8.364;2022-09-21T06:22:39;5.13;;;2.30;;
66139;SDS011;52945;51.908;8.364;2022-09-21T06:25:40;4.93;;;2.25;;
66139;SDS011;52945;51.908;8.364;2022-09-21T06:28:40;4.78;;;2.53;;
66139;SDS011;52945;51.908;8.364;2022-09-21T06:31:41;4.30;;;2.05;;
66139;SDS011;52945;51.908;8.364;2022-09-21T06:34:42;5.00;;;2.60;;
66139;SDS011;52945;51.908;8.364;2022-09-21T06:37:42;3.90;;;2.20;;
66139;SDS011;52945;51.908;8.364;2022-09-21T06:40:43;4.20;;;2.50;;
66139;SDS011;52945;51.908;8.364;2022-09-21T06:43:43;5.55;;;2.75;;
66139;SDS011;52945;51.908;8.364;2022-09-21T06:46:44;3.95;;;1.95;;
66139;SDS011;52945;51.908;8.364;2022-09-21T06:49:44;5.32;;;2.50;;
66139;SDS011;52945;51.908;8.364;2022-09-21T06:52:45;3.95;;;2.25;;
66139;SDS011;52945;51.908;8.364;2022-09-21T06:55:46;6.68;;;2.63;;
66139;SDS011;52945;51.908;8.364;2022-09-21T06:58:46;6.35;;;2.78;;
66139;SDS011;52945;51.908;8.364;2022-09-21T07:01:47;4.88;;;2.05;;
66139;SDS011;52945;51.908;8.364;2022-09-21T07:04:47;4.57;;;2.33;;
66139;SDS011;52945;51.908;8.364;2022-09-21T07:07:48;5.55;;;2.72;;
66139;SDS011;52945;51.908;8.364;2022-09-21T07:10:49;6.55;;;3.03;;
66139;SDS011;52945;51.908;8.364;2022-09-21T07:13:49;5.10;;;2.70;;
66139;SDS011;52945;51.908;8.364;2022-09-21T07:16:51;6.03;;;3.03;;
66139;SDS011;52945;51.908;8.364;2022-09-21T07:19:51;5.68;;;3.50;;
66139;SDS011;52945;51.908;8.364;2022-09-21T07:22:52;4.68;;;2.65;;
66139;SDS011;52945;51.908;8.364;2022-09-21T07:25:53;5.45;;;3.17;;
66139;SDS011;52945;51.908;8.364;2022-09-21T07:28:54;8.38;;;3.30;;
66139;SDS011;52945;51.908;8.364;2022-09-21T07:31:54;11.30;;;4.28;;
66139;SDS011;52945;51.908;8.364;2022-09-21T07:34:55;11.75;;;3.92;;
66139;SDS011;52945;51.908;8.364;2022-09-21T07:37:59;12.35;;;4.65;;
66139;SDS011;52945;51.908;8.364;2022-09-21T07:41:01;7.32;;;4.03;;
66139;SDS011;52945;51.908;8.364;2022-09-21T07:44:02;8.30;;;4.22;;
66139;SDS011;52945;51.908;8.364;2022-09-21T07:47:03;7.10;;;3.58;;
66139;SDS011;52945;51.908;8.364;2022-09-21T07:50:04;8.40;;;4.22;;
66139;SDS011;52945;51.908;8.364;2022-09-21T07:53:05;8.77;;;4.70;;
66139;SDS011;52945;51.908;8.364;2022-09-21T07:56:10;6.85;;;4.13;;
66139;SDS011;52945;51.908;8.364;2022-09-21T07:59:12;9.77;;;4.63;;
66139;SDS011;52945;51.908;8.364;2022-09-21T08:02:12;9.73;;;4.78;;
66139;SDS011;52945;51.908;8.364;2022-09-21T08:05:13;10.00;;;4.65;;
66139;SDS011;52945;51.908;8.364;2022-09-21T08:08:14;9.90;;;4.75;;
66139;SDS011;52945;51.908;8.364;2022-09-21T08:11:16;9.27;;;4.90;;
66139;SDS011;52945;51.908;8.364;2022-09-21T08:14:18;9.32;;;4.97;;
66139;SDS011;52945;51.908;8.364;2022-09-21T08:17:19;9.95;;;4.88;;
66139;SDS011;52945;51.908;8.364;2022-09-21T08:20:20;11.27;;;4.63;;
66139;SDS011;52945;51.908;8.364;2022-09-21T08:23:20;7.75;;;4.10;;
66139;SDS011;52945;51.908;8.364;2022-09-21T08:26:21;7.25;;;4.68;;
66139;SDS011;52945;51.908;8.364;2022-09-21T08:29:24;9.13;;;5.07;;
66139;SDS011;52945;51.908;8.364;2022-09-21T08:32:25;6.72;;;4.22;;
66139;SDS011;52945;51.908;8.364;2022-09-21T08:35:26;7.47;;;3.97;;
66139;SDS011;52945;51.908;8.364;2022-09-21T08:38:31;8.77;;;4.35;;
66139;SDS011;52945;51.908;8.364;2022-09-21T08:45:02;7.07;;;3.95;;
66139;SDS011;52945;51.908;8.364;2022-09-21T08:48:09;5.35;;;3.83;;
66139;SDS011;52945;51.908;8.364;2022-09-21T08:51:22;5.72;;;3.33;;
66139;SDS011;52945;51.908;8.364;2022-09-21T08:57:29;6.22;;;3.08;;
66139;SDS011;52945;51.908;8.364;2022-09-21T09:00:32;5.07;;;3.53;;
66139;SDS011;52945;51.908;8.364;2022-09-21T09:06:59;4.22;;;2.80;;
66139;SDS011;52945;51.908;8.364;2022-09-21T09:17:23;4.38;;;2.60;;
66139;SDS011;52945;51.908;8.364;2022-09-21T09:20:34;2.90;;;2.20;;
66139;SDS011;52945;51.908;8.364;2022-09-21T09:23:42;4.03;;;2.20;;
66139;SDS011;52945;51.908;8.364;2022-09-21T09:26:52;5.45;;;1.95;;
66139;SDS011;52945;51.908;8.364;2022-09-21T09:33:25;3.65;;;2.40;;
66139;SDS011;52945;51.908;8.364;2022-09-21T09:36:31;4.10;;;2.10;;
66139;SDS011;52945;51.908;8.364;2022-09-21T09:39:33;4.55;;;2.35;;
66139;SDS011;52945;51.908;8.364;2022-09-21T09:45:47;4.88;;;2.05;;
66139;SDS011;52945;51.908;8.364;2022-09-21T09:49:31;3.72;;;1.90;;
66139;SDS011;52945;51.908;8.364;2022-09-21T09:52:36;4.00;;;1.58;;
66139;SDS011;52945;51.908;8.364;2022-09-21T09:55:38;4.00;;;1.50;;
66139;SDS011;52945;51.908;8.364;2022-09-21T09:58:43;4.97;;;1.85;;
66139;SDS011;52945;51.908;8.364;2022-09-21T10:01:59;3.13;;;1.73;;
66139;SDS011;52945;51.908;8.364;2022-09-21T10:05:03;5.18;;;1.50;;
66139;SDS011;52945;51.908;8.364;2022-09-21T10:08:05;3.92;;;1.50;;
66139;SDS011;52945;51.908;8.364;2022-09-21T10:11:33;3.97;;;1.38;;
66139;SDS011;52945;51.908;8.364;2022-09-21T10:14:36;4.22;;;1.25;;
66139;SDS011;52945;51.908;8.364;2022-09-21T10:17:36;2.47;;;1.40;;
66139;SDS011;52945;51.908;8.364;2022-09-21T10:20:38;6.10;;;1.60;;
66139;SDS011;52945;51.908;8.364;2022-09-21T10:23:55;4.40;;;1.15;;
66139;SDS011;52945;51.908;8.364;2022-09-21T10:27:14;3.72;;;1.13;;
66139;SDS011;52945;51.908;8.364;2022-09-21T10:30:35;4.47;;;1.73;;
66139;SDS011;52945;51.908;8.364;2022-09-21T10:33:48;4.97;;;1.77;;
66139;SDS011;52945;51.908;8.364;2022-09-21T10:36:52;3.90;;;1.52;;
66139;SDS011;52945;51.908;8.364;2022-09-21T10:39:55;2.88;;;1.27;;
66139;SDS011;52945;51.908;8.364;2022-09-21T10:42:57;3.85;;;1.50;;
66139;SDS011;52945;51.908;8.364;2022-09-21T10:45:59;4.82;;;1.10;;
66139;SDS011;52945;51.908;8.364;2022-09-21T10:49:00;3.13;;;1.48;;
66139;SDS011;52945;51.908;8.364;2022-09-21T10:52:01;2.40;;;1.20;;
66139;SDS011;52945;51.908;8.364;2022-09-21T10:55:02;2.35;;;1.30;;
66139;SDS011;52945;51.908;8.364;2022-09-21T10:58:07;3.20;;;1.38;;
66139;SDS011;52945;51.908;8.364;2022-09-21T11:01:19;2.88;;;1.40;;
66139;SDS011;52945;51.908;8.364;2022-09-21T11:08:00;6.05;;;1.55;;
66139;SDS011;52945;51.908;8.364;2022-09-21T11:14:45;3.55;;;1.17;;
66139;SDS011;52945;51.908;8.364;2022-09-21T11:37:47;4.15;;;1.30;;
66139;SDS011;52945;51.908;8.364;2022-09-21T11:41:03;2.00;;;0.95;;
66139;SDS011;52945;51.908;8.364;2022-09-21T11:47:52;2.30;;;1.13;;
66139;SDS011;52945;51.908;8.364;2022-09-21T11:58:28;4.28;;;0.90;;
66139;SDS011;52945;51.908;8.364;2022-09-21T12:02:03;3.40;;;1.27;;
66139;SDS011;52945;51.908;8.364;2022-09-21T12:05:21;3.05;;;0.82;;
66139;SDS011;52945;51.908;8.364;2022-09-21T12:11:42;3.75;;;0.80;;
66139;SDS011;52945;51.908;8.364;2022-09-21T12:21:52;1.02;;;0.70;;
66139;SDS011;52945;51.908;8.364;2022-09-21T12:25:00;1.85;;;0.40;;
66139;SDS011;52945;51.908;8.364;2022-09-21T12:28:15;2.08;;;0.80;;
66139;SDS011;52945;51.908;8.364;2022-09-21T12:31:42;1.95;;;0.70;;
66139;SDS011;52945;51.908;8.364;2022-09-21T12:34:53;1.35;;;0.43;;
66139;SDS011;52945;51.908;8.364;2022-09-21T12:44:26;2.97;;;0.60;;
66139;SDS011;52945;51.908;8.364;2022-09-21T12:47:46;1.48;;;0.70;;
66139;SDS011;52945;51.908;8.364;2022-09-21T12:50:53;0.93;;;0.55;;
66139;SDS011;52945;51.908;8.364;2022-09-21T12:53:57;3.13;;;0.68;;
66139;SDS011;52945;51.908;8.364;2022-09-21T12:57:09;2.00;;;0.57;;
66139;SDS011;52945;51.908;8.364;2022-09-21T13:00:21;3.78;;;0.90;;
66139;SDS011;52945;51.908;8.364;2022-09-21T13:10:55;3.70;;;0.98;;
66139;SDS011;52945;51.908;8.364;2022-09-21T13:13:55;1.67;;;0.80;;
66139;SDS011;52945;51.908;8.364;2022-09-21T13:16:59;2.00;;;0.40;;
66139;SDS011;52945;51.908;8.364;2022-09-21T13:20:06;0.95;;;0.70;;
66139;SDS011;52945;51.908;8.364;2022-09-21T13:23:26;1.75;;;0.80;;
66139;SDS011;52945;51.908;8.364;2022-09-21T13:26:38;1.42;;;0.65;;
66139;SDS011;52945;51.908;8.364;2022-09-21T13:29:41;1.83;;;0.70;;
66139;SDS011;52945;51.908;8.364;2022-09-21T13:32:51;1.38;;;0.90;;
66139;SDS011;52945;51.908;8.364;2022-09-21T13:48:34;4.57;;;1.73;;
66139;SDS011;52945;51.908;8.364;2022-09-21T13:58:33;4.75;;;1.33;;
66139;SDS011;52945;51.908;8.364;2022-09-21T14:01:40;4.82;;;1.35;;
66139;SDS011;52945;51.908;8.364;2022-09-21T14:04:41;2.88;;;1.20;;
66139;SDS011;52945;51.908;8.364;2022-09-21T14:07:53;3.80;;;1.42;;
66139;SDS011;52945;51.908;8.364;2022-09-21T14:11:04;3.85;;;1.80;;
66139;SDS011;52945;51.908;8.364;2022-09-21T14:18:06;3.00;;;1.02;;
66139;SDS011;52945;51.908;8.364;2022-09-21T14:20:36;5.60;;;0.93;;
66139;SDS011;52945;51.908;8.364;2022-09-21T14:23:37;1.92;;;1.00;;
66139;SDS011;52945;51.908;8.364;2022-09-21T14:32:50;2.15;;;1.20;;
66139;SDS011;52945;51.908;8.364;2022-09-21T14:36:05;2.33;;;1.05;;
66139;SDS011;52945;51.908;8.364;2022-09-21T14:39:14;2.50;;;1.00;;
66139;SDS011;52945;51.908;8.364;2022-09-21T14:42:20;2.25;;;0.90;;
66139;SDS011;52945;51.908;8.364;2022-09-21T14:55:26;2.05;;;0.68;;
66139;SDS011;52945;51.908;8.364;2022-09-21T15:02:15;0.65;;;0.63;;
66139;SDS011;52945;51.908;8.364;2022-09-21T15:05:34;1.20;;;0.73;;
66139;SDS011;52945;51.908;8.364;2022-09-21T15:08:47;3.63;;;0.95;;
66139;SDS011;52945;51.908;8.364;2022-09-21T15:16:04;1.10;;;0.80;;
66139;SDS011;52945;51.908;8.364;2022-09-21T15:22:18;2.40;;;0.90;;
66139;SDS011;52945;51.908;8.364;2022-09-21T15:25:22;2.65;;;0.90;;
66139;SDS011;52945;51.908;8.364;2022-09-21T15:28:25;1.23;;;0.70;;
66139;SDS011;52945;51.908;8.364;2022-09-21T15:31:33;1.52;;;0.65;;
66139;SDS011;52945;51.908;8.364;2022-09-21T15:34:36;5.28;;;1.08;;
66139;SDS011;52945;51.908;8.364;2022-09-21T15:37:37;4.10;;;0.80;;
66139;SDS011;52945;51.908;8.364;2022-09-21T15:40:45;0.55;;;0.55;;
66139;SDS011;52945;51.908;8.364;2022-09-21T15:43:46;1.90;;;0.70;;
66139;SDS011;52945;51.908;8.364;2022-09-21T15:46:58;2.72;;;0.75;;
66139;SDS011;52945;51.908;8.364;2022-09-21T15:50:01;1.38;;;0.73;;
66139;SDS011;52945;51.908;8.364;2022-09-21T15:53:03;2.65;;;0.70;;
66139;SDS011;52945;51.908;8.364;2022-09-21T15:56:15;2.42;;;0.70;;
66139;SDS011;52945;51.908;8.364;2022-09-21T15:59:19;2.10;;;0.90;;
66139;SDS011;52945;51.908;8.364;2022-09-21T16:02:24;1.83;;;0.63;;
66139;SDS011;52945;51.908;8.364;2022-09-21T16:05:27;4.07;;;1.00;;
66139;SDS011;52945;51.908;8.364;2022-09-21T16:08:32;2.72;;;0.98;;
66139;SDS011;52945;51.908;8.364;2022-09-21T16:11:34;2.45;;;0.73;;
66139;SDS011;52945;51.908;8.364;2022-09-21T16:14:36;2.10;;;0.75;;
66139;SDS011;52945;51.908;8.364;2022-09-21T16:18:02;3.63;;;0.93;;
66139;SDS011;52945;51.908;8.364;2022-09-21T16:21:27;1.60;;;0.85;;
66139;SDS011;52945;51.908;8.364;2022-09-21T16:24:33;3.60;;;1.08;;
66139;SDS011;52945;51.908;8.364;2022-09-21T16:27:34;2.45;;;0.80;;
66139;SDS011;52945;51.908;8.364;2022-09-21T16:34:04;1.55;;;0.98;;
66139;SDS011;52945;51.908;8.364;2022-09-21T16:40:26;1.13;;;0.73;;
66139;SDS011;52945;51.908;8.364;2022-09-21T16:43:27;2.60;;;0.70;;
66139;SDS011;52945;51.908;8.364;2022-09-21T16:46:29;1.77;;;0.70;;
66139;SDS011;52945;51.908;8.364;2022-09-21T16:49:31;2.78;;;0.90;;
66139;SDS011;52945;51.908;8.364;2022-09-21T16:52:34;3.42;;;1.05;;
66139;SDS011;52945;51.908;8.364;2022-09-21T16:55:35;2.50;;;1.05;;
66139;SDS011;52945;51.908;8.364;2022-09-21T16:58:35;2.88;;;0.88;;
66139;SDS011;52945;51.908;8.364;2022-09-21T17:01:36;2.80;;;0.90;;
66139;SDS011;52945;51.908;8.364;2022-09-21T17:04:36;1.70;;;0.90;;
66139;SDS011;52945;51.908;8.364;2022-09-21T17:07:37;3.63;;;1.35;;
66139;SDS011;52945;51.908;8.364;2022-09-21T17:10:41;2.90;;;1.20;;
66139;SDS011;52945;51.908;8.364;2022-09-21T17:13:50;2.58;;;1.35;;
66139;SDS011;52945;51.908;8.364;2022-09-21T17:16:51;2.28;;;1.42;;
66139;SDS011;52945;51.908;8.364;2022-09-21T17:19:54;2.67;;;1.13;;
66139;SDS011;52945;51.908;8.364;2022-09-21T17:22:55;1.85;;;1.02;;
66139;SDS011;52945;51.908;8.364;2022-09-21T17:25:57;3.83;;;1.00;;
66139;SDS011;52945;51.908;8.364;2022-09-21T17:28:57;0.80;;;0.80;;
66139;SDS011;52945;51.908;8.364;2022-09-21T17:31:58;2.55;;;1.27;;
66139;SDS011;52945;51.908;8.364;2022-09-21T17:35:08;1.30;;;0.95;;
66139;SDS011;52945;51.908;8.364;2022-09-21T17:38:29;2.22;;;0.90;;
66139;SDS011;52945;51.908;8.364;2022-09-21T17:41:33;2.67;;;1.10;;
66139;SDS011;52945;51.908;8.364;2022-09-21T17:47:54;2.05;;;1.42;;
66139;SDS011;52945;51.908;8.364;2022-09-21T17:53:55;3.33;;;1.42;;
66139;SDS011;52945;51.908;8.364;2022-09-21T17:56:57;3.45;;;1.30;;
66139;SDS011;52945;51.908;8.364;2022-09-21T18:00:09;9.82;;;1.50;;
66139;SDS011;52945;51.908;8.364;2022-09-21T18:03:21;2.80;;;1.55;;
66139;SDS011;52945;51.908;8.364;2022-09-21T18:06:23;4.35;;;2.00;;
66139;SDS011;52945;51.908;8.364;2022-09-21T18:09:25;4.25;;;1.85;;
66139;SDS011;52945;51.908;8.364;2022-09-21T18:18:42;4.47;;;1.70;;
66139;SDS011;52945;51.908;8.364;2022-09-21T18:21:47;3.15;;;1.80;;
66139;SDS011;52945;51.908;8.364;2022-09-21T18:24:51;6.47;;;2.78;;
66139;SDS011;52945;51.908;8.364;2022-09-21T18:27:55;6.57;;;2.42;;
66139;SDS011;52945;51.908;8.364;2022-09-21T18:31:01;4.82;;;2.63;;
66139;SDS011;52945;51.908;8.364;2022-09-21T18:44:45;4.50;;;2.25;;
66139;SDS011;52945;51.908;8.364;2022-09-21T18:51:02;5.82;;;2.85;;
66139;SDS011;52945;51.908;8.364;2022-09-21T18:54:18;5.82;;;2.60;;
66139;SDS011;52945;51.908;8.364;2022-09-21T18:57:20;4.63;;;2.33;;
66139;SDS011;52945;51.908;8.364;2022-09-21T19:00:22;5.20;;;2.78;;
66139;SDS011;52945;51.908;8.364;2022-09-21T19:03:30;4.75;;;2.40;;
66139;SDS011;52945;51.908;8.364;2022-09-21T19:10:05;6.85;;;3.30;;
66139;SDS011;52945;51.908;8.364;2022-09-21T19:16:53;6.40;;;3.63;;
66139;SDS011;52945;51.908;8.364;2022-09-21T19:20:29;7.03;;;3.40;;
66139;SDS011;52945;51.908;8.364;2022-09-21T19:24:30;7.43;;;3.30;;
66139;SDS011;52945;51.908;8.364;2022-09-21T19:30:26;7.22;;;3.10;;
66139;SDS011;52945;51.908;8.364;2022-09-21T19:33:28;5.65;;;3.47;;
66139;SDS011;52945;51.908;8.364;2022-09-21T19:36:30;6.13;;;2.97;;
66139;SDS011;52945;51.908;8.364;2022-09-21T19:39:31;11.30;;;3.58;;
66139;SDS011;52945;51.908;8.364;2022-09-21T19:42:38;6.32;;;3.20;;
66139;SDS011;52945;51.908;8.364;2022-09-21T19:49:13;6.22;;;3.65;;
66139;SDS011;52945;51.908;8.364;2022-09-21T19:52:18;6.63;;;3.25;;
66139;SDS011;52945;51.908;8.364;2022-09-21T19:55:28;6.25;;;3.00;;
66139;SDS011;52945;51.908;8.364;2022-09-21T19:58:47;6.88;;;3.50;;
66139;SDS011;52945;51.908;8.364;2022-09-21T20:02:07;7.38;;;3.40;;
66139;SDS011;52945;51.908;8.364;2022-09-21T20:05:13;9.73;;;3.28;;
66139;SDS011;52945;51.908;8.364;2022-09-21T20:08:23;7.10;;;3.53;;
66139;SDS011;52945;51.908;8.364;2022-09-21T20:11:43;9.15;;;3.70;;
66139;SDS011;52945;51.908;8.364;2022-09-21T20:15:06;6.30;;;3.33;;
66139;SDS011;52945;51.908;8.364;2022-09-21T20:21:47;6.10;;;3.00;;
66139;SDS011;52945;51.908;8.364;2022-09-21T20:24:55;12.25;;;3.85;;
66139;SDS011;52945;51.908;8.364;2022-09-21T20:28:00;7.18;;;3.45;;
66139;SDS011;52945;51.908;8.364;2022-09-21T20:31:02;6.28;;;3.38;;
66139;SDS011;52945;51.908;8.364;2022-09-21T20:34:03;6.72;;;3.38;;
66139;SDS011;52945;51.908;8.364;2022-09-21T20:37:05;8.63;;;3.35;;
66139;SDS011;52945;51.908;8.364;2022-09-21T20:40:10;7.50;;;3.50;;
66139;SDS011;52945;51.908;8.364;2022-09-21T20:43:12;7.88;;;3.42;;
66139;SDS011;52945;51.908;8.364;2022-09-21T20:46:16;8.52;;;3.83;;
66139;SDS011;52945;51.908;8.364;2022-09-21T20:49:16;7.97;;;3.60;;
66139;SDS011;52945;51.908;8.364;2022-09-21T20:52:17;7.47;;;3.80;;
66139;SDS011;52945;51.908;8.364;2022-09-21T20:55:17;7.40;;;3.50;;
66139;SDS011;52945;51.908;8.364;2022-09-21T20:58:19;7.40;;;3.67;;
66139;SDS011;52945;51.908;8.364;2022-09-21T21:01:20;7.65;;;3.90;;
66139;SDS011;52945;51.908;8.364;2022-09-21T21:04:20;8.45;;;3.25;;
66139;SDS011;52945;51.908;8.364;2022-09-21T21:07:21;8.20;;;4.00;;
66139;SDS011;52945;51.908;8.364;2022-09-21T21:10:22;6.53;;;3.42;;
66139;SDS011;52945;51.908;8.364;2022-09-21T21:13:23;9.10;;;3.78;;
66139;SDS011;52945;51.908;8.364;2022-09-21T21:16:24;11.68;;;4.10;;
66139;SDS011;52945;51.908;8.364;2022-09-21T21:19:25;9.75;;;4.32;;
66139;SDS011;52945;51.908;8.364;2022-09-21T21:22:26;8.18;;;4.30;;
66139;SDS011;52945;51.908;8.364;2022-09-21T21:25:26;6.93;;;4.15;;
66139;SDS011;52945;51.908;8.364;2022-09-21T21:28:27;8.40;;;3.88;;
66139;SDS011;52945;51.908;8.364;2022-09-21T21:31:28;11.73;;;4.43;;
66139;SDS011;52945;51.908;8.364;2022-09-21T21:34:29;9.25;;;4.35;;
66139;SDS011;52945;51.908;8.364;2022-09-21T21:37:30;9.82;;;4.50;;
66139;SDS011;52945;51.908;8.364;2022-09-21T21:40:30;8.75;;;4.22;;
66139;SDS011;52945;51.908;8.364;2022-09-21T21:43:32;9.25;;;3.97;;
66139;SDS011;52945;51.908;8.364;2022-09-21T21:46:33;7.55;;;4.18;;
66139;SDS011;52945;51.908;8.364;2022-09-21T21:49:33;7.20;;;3.80;;
66139;SDS011;52945;51.908;8.364;2022-09-21T21:52:34;6.90;;;3.30;;
66139;SDS011;52945;51.908;8.364;2022-09-21T21:55:35;8.95;;;4.30;;
66139;SDS011;52945;51.908;8.364;2022-09-21T21:58:36;6.90;;;3.95;;
66139;SDS011;52945;51.908;8.364;2022-09-21T22:01:37;7.55;;;3.28;;
66139;SDS011;52945;51.908;8.364;2022-09-21T22:04:40;7.20;;;3.35;;
66139;SDS011;52945;51.908;8.364;2022-09-21T22:07:41;7.53;;;3.80;;
66139;SDS011;52945;51.908;8.364;2022-09-21T22:10:48;10.02;;;3.72;;
66139;SDS011;52945;51.908;8.364;2022-09-21T22:16:52;6.18;;;3.13;;
66139;SDS011;52945;51.908;8.364;2022-09-21T22:19:53;7.38;;;3.13;;
66139;SDS011;52945;51.908;8.364;2022-09-21T22:22:54;6.07;;;3.00;;
66139;SDS011;52945;51.908;8.364;2022-09-21T22:26:05;5.20;;;3.00;;
66139;SDS011;52945;51.908;8.364;2022-09-21T22:29:11;7.63;;;3.20;;
66139;SDS011;52945;51.908;8.364;2022-09-21T22:32:13;9.00;;;3.05;;
66139;SDS011;52945;51.908;8.364;2022-09-21T22:35:14;5.95;;;2.90;;
66139;SDS011;52945;51.908;8.364;2022-09-21T22:38:15;6.43;;;2.95;;
66139;SDS011;52945;51.908;8.364;2022-09-21T22:41:16;5.32;;;2.95;;
66139;SDS011;52945;51.908;8.364;2022-09-21T22:44:19;5.68;;;2.83;;